メインページ
METAR-TAF:

METAR-TAF

空港 :

ピッツバーグ, ペンシルバニア州, アメリカ合衆国

ピッツバーグ国際空港

緯度: 40-30-14N, 経度: 080-15-59W, 海抜: 366m

現時点の気象観測

当レポートは23分前の14:15(UTC)に作成
無風
気温 6°C
湿度 100%
気圧 1020 hPa
視程: 4.8km
高度800ftの雲は散在している
高度1300ftの曇り

METAR: KPIT 211415Z 00000KT 3SM BR SCT008 OVC013 06/06 A3013 RMK AO2 T00560056

時間: 09:38 (14:38 UTC)

予報

当レポートは1時間7分前の13:31(UTC)に作成
予報は21日の 14時(UTC)から 22日の 18時(UTC)まで有効
南/南西の風 5kt
視程: 1.6km
高度300ftの曇り
小霧雨, 靄
21日の 14時(UTC)から 21日の 16時(UTC)まで一時的に
視程: 4.8km
小霧雨, 靄
21日の 1600時(UTC)から
南/南西の風 5kt
視程: 10km
高度1000ftの曇り
近辺でにわか雨
22日の 0300時(UTC)から
南/南西の風 4kt
視程: 6.4km
高度600ftの曇り
小霧雨, 靄, 近辺でにわか雨
22日の 1500時(UTC)から
南/南東の風 5kt
視程: 10km
高度2500ftの千切れ雲あり

TAF: KPIT 211331Z 2114/2218 21005KT 1SM -DZ BR OVC003 TEMPO 2114/2116 3SM -DZ BR FM211600 21005KT P6SM VCSH OVC010 FM220300 21004KT 4SM -DZ BR VCSH OVC006 FM221500 16005KT P6SM BKN025

4,000以上の空港の気象観測と天気予報(METAR報とTAF報)

利用可能な観測所は地図上に黄色い丸と赤い丸で示す。

丸の上にカーソルを重ねると観測所名を参照できる。

次にクリックすると気象観測と天気予報を参照できる。

マップの切り替え:黒色「×」印の緑ボタンをクリックして拡大、「-」印の緑ボタンをクリックして縮小、緑色の三角印をクリックして隣りの地図に切り替え


METAR-TAF: